»·PEaware :: N12 L88-L52

N12 :: L88-L52

FLIGHT INFORMATION

Flight Status: Arrived
Operator: Privately registered:
United States
More flights under this callsign
Pilot: Gopalakrishna Pillai Sulekha S. (22834)
Aircraft: CESSNA 172 SKYHAWK
(C172)
More flights by this aircraft type
Origin: L88 New Cuyama
United States
Destination: L52 Oceano Co
United States
More flights between these airports :: More routes between these airports
Route:
File this flight plan on PilotEdge
Remarks: Sample flight plan
Altitude:
(Current/Filed)
3,500ft
Speed:
(Current/Filed)
115kts
Departed: 17-Jan-19 05:42 AM
Arrived: 17-Jan-19 06:12 AM
Distance/Time
Traveled:
102nm/0:29
Distance/Time
To Go:
Arrived

Flight Plot

Page will automatically refresh every two minutes.


Map Options




Map Legend


Flown Route
Filed Route
Departure Airport
Arrival Airport
Navaid (VOR, NDB)
Fix

Horizontal Profiles

Position Reports

Time Latitude Longitude Heading Altitude Ground
Speed
17-Jan-19 05:35 34.942853 -119.690285 204 2156ft 0kts
17-Jan-19 05:36 34.942853 -119.690285 204 2156ft 0kts
17-Jan-19 05:37 34.942853 -119.690285 204 2156ft 0kts
17-Jan-19 05:38 34.942584 -119.691204 178 2155ft 13kts
17-Jan-19 05:39 34.938524 -119.682101 116 2191ft 36kts
17-Jan-19 05:40 34.937726 -119.680158 296 2199ft 0kts
17-Jan-19 05:41 34.941131 -119.688952 292 2392ft 77kts
17-Jan-19 05:42 34.951909 -119.716808 296 2946ft 116kts
17-Jan-19 05:43 34.966784 -119.753194 296 3349ft 121kts
17-Jan-19 05:44 34.981808 -119.789867 296 3499ft 120kts
17-Jan-19 05:45 34.996588 -119.825913 296 3499ft 119kts
17-Jan-19 05:46 35.011495 -119.862258 296 3500ft 119kts
17-Jan-19 05:47 35.026379 -119.898538 296 3500ft 119kts
17-Jan-19 05:48 35.041345 -119.935005 296 3500ft 119kts
17-Jan-19 05:49 35.056192 -119.971173 296 3500ft 119kts
17-Jan-19 05:50 35.071161 -120.007627 296 3500ft 119kts
17-Jan-19 05:51 35.086086 -120.043823 298 3499ft 119kts
17-Jan-19 05:52 35.102481 -120.079118 299 3500ft 119kts
17-Jan-19 05:53 35.104689 -120.118927 266 3500ft 119kts
17-Jan-19 05:54 35.102754 -120.159786 266 3500ft 119kts
17-Jan-19 05:55 35.100843 -120.200214 266 3500ft 119kts
17-Jan-19 05:56 35.098927 -120.240816 266 3500ft 119kts
17-Jan-19 05:57 35.097013 -120.281434 266 3500ft 119kts
17-Jan-19 05:58 35.095101 -120.322063 266 3500ft 119kts
17-Jan-19 05:59 35.093195 -120.362645 266 3499ft 119kts
17-Jan-19 06:00 35.091477 -120.399229 266 3497ft 95kts
17-Jan-19 06:01 35.089040 -120.429767 255 3477ft 90kts
17-Jan-19 06:02 35.088378 -120.460328 267 3486ft 82kts
17-Jan-19 06:03 35.086989 -120.489963 267 3238ft 97kts
17-Jan-19 06:04 35.093973 -120.523349 290 2742ft 104kts
17-Jan-19 06:05 35.104197 -120.558110 290 2018ft 117kts
17-Jan-19 06:06 35.113624 -120.594120 279 1141ft 93kts
17-Jan-19 06:07 35.111062 -120.623749 269 1022ft 88kts
17-Jan-19 06:08 35.092947 -120.623082 134 971ft 96kts
17-Jan-19 06:09 35.085918 -120.599987 12 780ft 65kts
17-Jan-19 06:10 35.098357 -120.616402 303 139ft 59kts
17-Jan-19 06:11 35.102337 -120.622437 272 17ft 3kts
17-Jan-19 06:12 35.102306 -120.622509 218 17ft 0kts
17-Jan-19 06:13 35.102306 -120.622509 218 17ft 0kts
17-Jan-19 06:14 35.102306 -120.622509 218 17ft 0kts
17-Jan-19 06:15 34.261707 -118.413866 319 1004ft 0kts
17-Jan-19 06:16 34.261707 -118.413866 319 1004ft 0kts
17-Jan-19 06:17 34.261707 -118.413866 319 1004ft 0kts
17-Jan-19 06:18 33.819225 -118.145951 138 35ft 0kts
17-Jan-19 06:19 33.819225 -118.145951 138 35ft 0kts
17-Jan-19 06:20 33.819225 -118.145951 138 35ft 0kts
17-Jan-19 06:21 33.819225 -118.145951 138 35ft 0kts
17-Jan-19 06:23 33.819225 -118.145951 138 35ft 0kts
17-Jan-19 06:24 33.819225 -118.145951 138 35ft 0kts
17-Jan-19 06:25 33.819225 -118.145951 138 35ft 0kts

Navigation Log

Ident Type
Flight plan parsing failed, navigation log unavailable